sensor_id;sensor_type;location;lat;lon;timestamp;P1;durP1;ratioP1;P2;durP2;ratioP2
5175;SDS011;2607;50.934;6.934;2023-04-24T00:01:47;1.10;;;1.10;;
5175;SDS011;2607;50.934;6.934;2023-04-24T00:04:12;5.07;;;1.87;;
5175;SDS011;2607;50.934;6.934;2023-04-24T00:06:41;1.50;;;1.40;;
5175;SDS011;2607;50.934;6.934;2023-04-24T00:09:08;1.90;;;1.80;;
5175;SDS011;2607;50.934;6.934;2023-04-24T00:11:35;1.47;;;1.43;;
5175;SDS011;2607;50.934;6.934;2023-04-24T00:14:01;1.20;;;1.20;;
5175;SDS011;2607;50.934;6.934;2023-04-24T00:16:27;1.20;;;1.20;;
5175;SDS011;2607;50.934;6.934;2023-04-24T00:18:53;1.23;;;1.13;;
5175;SDS011;2607;50.934;6.934;2023-04-24T00:21:18;1.60;;;1.50;;
5175;SDS011;2607;50.934;6.934;2023-04-24T00:23:44;1.20;;;1.20;;
5175;SDS011;2607;50.934;6.934;2023-04-24T00:26:10;1.30;;;1.30;;
5175;SDS011;2607;50.934;6.934;2023-04-24T00:28:35;1.17;;;1.17;;
5175;SDS011;2607;50.934;6.934;2023-04-24T00:31:01;11.50;;;1.47;;
5175;SDS011;2607;50.934;6.934;2023-04-24T00:33:27;1.20;;;1.20;;
5175;SDS011;2607;50.934;6.934;2023-04-24T00:35:52;1.13;;;1.13;;
5175;SDS011;2607;50.934;6.934;2023-04-24T00:38:18;1.20;;;1.20;;
5175;SDS011;2607;50.934;6.934;2023-04-24T00:40:43;2.87;;;1.40;;
5175;SDS011;2607;50.934;6.934;2023-04-24T00:43:09;1.20;;;1.20;;
5175;SDS011;2607;50.934;6.934;2023-04-24T00:45:35;1.20;;;1.20;;
5175;SDS011;2607;50.934;6.934;2023-04-24T00:48:01;1.43;;;1.30;;
5175;SDS011;2607;50.934;6.934;2023-04-24T00:50:27;1.30;;;1.20;;
5175;SDS011;2607;50.934;6.934;2023-04-24T00:52:54;1.10;;;1.10;;
5175;SDS011;2607;50.934;6.934;2023-04-24T00:55:20;1.27;;;1.23;;
5175;SDS011;2607;50.934;6.934;2023-04-24T00:57:45;1.20;;;1.20;;
5175;SDS011;2607;50.934;6.934;2023-04-24T01:00:12;1.10;;;1.10;;
5175;SDS011;2607;50.934;6.934;2023-04-24T01:02:41;1.20;;;1.20;;
5175;SDS011;2607;50.934;6.934;2023-04-24T01:05:12;1.30;;;1.30;;
5175;SDS011;2607;50.934;6.934;2023-04-24T01:07:40;1.33;;;1.33;;
5175;SDS011;2607;50.934;6.934;2023-04-24T01:10:09;2.23;;;1.50;;
5175;SDS011;2607;50.934;6.934;2023-04-24T01:12:35;1.73;;;1.40;;
5175;SDS011;2607;50.934;6.934;2023-04-24T01:15:00;4.73;;;1.20;;
5175;SDS011;2607;50.934;6.934;2023-04-24T01:17:26;1.00;;;1.00;;
5175;SDS011;2607;50.934;6.934;2023-04-24T01:19:51;2.53;;;1.30;;
5175;SDS011;2607;50.934;6.934;2023-04-24T01:22:21;1.30;;;1.30;;
5175;SDS011;2607;50.934;6.934;2023-04-24T01:24:47;1.30;;;1.30;;
5175;SDS011;2607;50.934;6.934;2023-04-24T01:27:12;1.50;;;1.50;;
5175;SDS011;2607;50.934;6.934;2023-04-24T01:29:38;1.27;;;1.27;;
5175;SDS011;2607;50.934;6.934;2023-04-24T01:32:04;1.53;;;1.33;;
5175;SDS011;2607;50.934;6.934;2023-04-24T01:34:31;1.30;;;1.30;;
5175;SDS011;2607;50.934;6.934;2023-04-24T01:36:57;2.37;;;2.27;;
5175;SDS011;2607;50.934;6.934;2023-04-24T01:39:22;2.87;;;2.60;;
5175;SDS011;2607;50.934;6.934;2023-04-24T01:41:50;2.60;;;2.50;;
5175;SDS011;2607;50.934;6.934;2023-04-24T01:44:16;3.00;;;2.80;;
5175;SDS011;2607;50.934;6.934;2023-04-24T01:46:43;3.03;;;2.80;;
5175;SDS011;2607;50.934;6.934;2023-04-24T01:49:08;2.93;;;2.73;;
5175;SDS011;2607;50.934;6.934;2023-04-24T01:51:34;3.03;;;2.83;;
5175;SDS011;2607;50.934;6.934;2023-04-24T01:54:00;3.07;;;2.87;;
5175;SDS011;2607;50.934;6.934;2023-04-24T01:56:25;3.40;;;3.20;;
5175;SDS011;2607;50.934;6.934;2023-04-24T01:58:54;3.20;;;3.03;;
5175;SDS011;2607;50.934;6.934;2023-04-24T02:01:21;3.87;;;3.57;;
5175;SDS011;2607;50.934;6.934;2023-04-24T02:03:48;5.17;;;3.33;;
5175;SDS011;2607;50.934;6.934;2023-04-24T02:06:13;3.90;;;3.43;;
5175;SDS011;2607;50.934;6.934;2023-04-24T02:08:39;4.10;;;3.77;;
5175;SDS011;2607;50.934;6.934;2023-04-24T02:11:05;4.73;;;4.20;;
5175;SDS011;2607;50.934;6.934;2023-04-24T02:13:31;5.50;;;3.93;;
5175;SDS011;2607;50.934;6.934;2023-04-24T02:15:57;4.10;;;3.90;;
5175;SDS011;2607;50.934;6.934;2023-04-24T02:18:23;3.70;;;3.50;;
5175;SDS011;2607;50.934;6.934;2023-04-24T02:20:49;4.00;;;3.70;;
5175;SDS011;2607;50.934;6.934;2023-04-24T02:23:14;3.67;;;3.47;;
5175;SDS011;2607;50.934;6.934;2023-04-24T02:25:40;4.60;;;4.20;;
5175;SDS011;2607;50.934;6.934;2023-04-24T02:28:06;5.37;;;4.20;;
5175;SDS011;2607;50.934;6.934;2023-04-24T02:30:31;4.60;;;3.90;;
5175;SDS011;2607;50.934;6.934;2023-04-24T02:32:57;4.20;;;3.90;;
5175;SDS011;2607;50.934;6.934;2023-04-24T02:35:22;4.00;;;3.80;;
5175;SDS011;2607;50.934;6.934;2023-04-24T02:37:48;4.00;;;3.77;;
5175;SDS011;2607;50.934;6.934;2023-04-24T02:40:13;6.07;;;4.43;;
5175;SDS011;2607;50.934;6.934;2023-04-24T02:42:39;6.37;;;5.77;;
5175;SDS011;2607;50.934;6.934;2023-04-24T02:45:05;8.30;;;6.57;;
5175;SDS011;2607;50.934;6.934;2023-04-24T02:47:31;7.03;;;5.13;;
5175;SDS011;2607;50.934;6.934;2023-04-24T02:49:56;4.40;;;4.10;;
5175;SDS011;2607;50.934;6.934;2023-04-24T02:52:22;4.50;;;4.20;;
5175;SDS011;2607;50.934;6.934;2023-04-24T02:54:47;4.03;;;3.63;;
5175;SDS011;2607;50.934;6.934;2023-04-24T02:57:13;4.23;;;3.93;;
5175;SDS011;2607;50.934;6.934;2023-04-24T02:59:38;6.27;;;4.37;;
5175;SDS011;2607;50.934;6.934;2023-04-24T03:02:04;4.87;;;4.33;;
5175;SDS011;2607;50.934;6.934;2023-04-24T03:04:30;5.73;;;5.23;;
5175;SDS011;2607;50.934;6.934;2023-04-24T03:06:56;4.60;;;4.30;;
5175;SDS011;2607;50.934;6.934;2023-04-24T03:09:22;5.93;;;5.43;;
5175;SDS011;2607;50.934;6.934;2023-04-24T03:11:48;10.80;;;6.47;;
5175;SDS011;2607;50.934;6.934;2023-04-24T03:14:14;5.83;;;5.30;;
5175;SDS011;2607;50.934;6.934;2023-04-24T03:16:40;10.13;;;5.30;;
5175;SDS011;2607;50.934;6.934;2023-04-24T03:19:05;5.50;;;5.03;;
5175;SDS011;2607;50.934;6.934;2023-04-24T03:21:31;5.83;;;5.30;;
5175;SDS011;2607;50.934;6.934;2023-04-24T03:23:57;6.80;;;6.13;;
5175;SDS011;2607;50.934;6.934;2023-04-24T03:26:22;6.40;;;5.80;;
5175;SDS011;2607;50.934;6.934;2023-04-24T03:28:48;5.43;;;4.90;;
5175;SDS011;2607;50.934;6.934;2023-04-24T03:31:13;5.63;;;5.13;;
5175;SDS011;2607;50.934;6.934;2023-04-24T03:33:40;6.30;;;5.67;;
5175;SDS011;2607;50.934;6.934;2023-04-24T03:36:06;6.03;;;5.43;;
5175;SDS011;2607;50.934;6.934;2023-04-24T03:38:31;5.50;;;5.00;;
5175;SDS011;2607;50.934;6.934;2023-04-24T03:40:57;7.10;;;6.33;;
5175;SDS011;2607;50.934;6.934;2023-04-24T03:43:22;5.80;;;5.30;;
5175;SDS011;2607;50.934;6.934;2023-04-24T03:45:48;5.40;;;5.00;;
5175;SDS011;2607;50.934;6.934;2023-04-24T03:48:14;7.37;;;5.20;;
5175;SDS011;2607;50.934;6.934;2023-04-24T03:50:39;5.67;;;5.13;;
5175;SDS011;2607;50.934;6.934;2023-04-24T03:53:05;5.53;;;5.13;;
5175;SDS011;2607;50.934;6.934;2023-04-24T03:55:30;7.07;;;5.40;;
5175;SDS011;2607;50.934;6.934;2023-04-24T03:57:56;5.07;;;4.63;;
5175;SDS011;2607;50.934;6.934;2023-04-24T04:00:22;5.67;;;5.20;;
5175;SDS011;2607;50.934;6.934;2023-04-24T04:02:47;5.30;;;4.83;;
5175;SDS011;2607;50.934;6.934;2023-04-24T04:05:13;6.20;;;5.70;;
5175;SDS011;2607;50.934;6.934;2023-04-24T04:07:38;5.80;;;5.30;;
5175;SDS011;2607;50.934;6.934;2023-04-24T04:10:04;5.47;;;4.90;;
5175;SDS011;2607;50.934;6.934;2023-04-24T04:12:31;6.17;;;5.10;;
5175;SDS011;2607;50.934;6.934;2023-04-24T04:14:57;5.43;;;5.03;;
5175;SDS011;2607;50.934;6.934;2023-04-24T04:17:23;5.40;;;5.03;;
5175;SDS011;2607;50.934;6.934;2023-04-24T04:19:48;7.63;;;4.87;;
5175;SDS011;2607;50.934;6.934;2023-04-24T04:22:14;8.73;;;5.67;;
5175;SDS011;2607;50.934;6.934;2023-04-24T04:24:39;6.37;;;5.70;;
5175;SDS011;2607;50.934;6.934;2023-04-24T04:27:05;6.00;;;4.97;;
5175;SDS011;2607;50.934;6.934;2023-04-24T04:29:31;6.00;;;5.10;;
5175;SDS011;2607;50.934;6.934;2023-04-24T04:31:57;6.00;;;4.80;;
5175;SDS011;2607;50.934;6.934;2023-04-24T04:34:23;5.50;;;5.00;;
5175;SDS011;2607;50.934;6.934;2023-04-24T04:36:49;6.87;;;5.40;;
5175;SDS011;2607;50.934;6.934;2023-04-24T04:39:15;6.03;;;5.40;;
5175;SDS011;2607;50.934;6.934;2023-04-24T04:41:41;5.63;;;5.17;;
5175;SDS011;2607;50.934;6.934;2023-04-24T04:44:07;6.40;;;5.10;;
5175;SDS011;2607;50.934;6.934;2023-04-24T04:46:33;6.00;;;5.40;;
5175;SDS011;2607;50.934;6.934;2023-04-24T04:48:59;7.97;;;5.27;;
5175;SDS011;2607;50.934;6.934;2023-04-24T04:51:26;5.47;;;5.07;;
5175;SDS011;2607;50.934;6.934;2023-04-24T04:53:52;4.93;;;4.50;;
5175;SDS011;2607;50.934;6.934;2023-04-24T04:56:18;5.97;;;5.40;;
5175;SDS011;2607;50.934;6.934;2023-04-24T04:58:43;4.90;;;4.60;;
5175;SDS011;2607;50.934;6.934;2023-04-24T05:01:09;5.40;;;4.40;;
5175;SDS011;2607;50.934;6.934;2023-04-24T05:03:34;6.20;;;4.50;;
5175;SDS011;2607;50.934;6.934;2023-04-24T05:06:00;5.27;;;4.87;;
5175;SDS011;2607;50.934;6.934;2023-04-24T05:08:27;5.70;;;5.23;;
5175;SDS011;2607;50.934;6.934;2023-04-24T05:10:52;5.00;;;4.57;;
5175;SDS011;2607;50.934;6.934;2023-04-24T05:13:18;7.73;;;5.53;;
5175;SDS011;2607;50.934;6.934;2023-04-24T05:15:44;5.27;;;4.67;;
5175;SDS011;2607;50.934;6.934;2023-04-24T05:18:10;5.60;;;5.10;;
5175;SDS011;2607;50.934;6.934;2023-04-24T05:20:36;6.07;;;5.47;;
5175;SDS011;2607;50.934;6.934;2023-04-24T05:23:01;5.20;;;4.77;;
5175;SDS011;2607;50.934;6.934;2023-04-24T05:25:27;5.40;;;4.90;;
5175;SDS011;2607;50.934;6.934;2023-04-24T05:27:52;5.33;;;4.90;;
5175;SDS011;2607;50.934;6.934;2023-04-24T05:30:18;5.87;;;5.10;;
5175;SDS011;2607;50.934;6.934;2023-04-24T05:32:44;11.47;;;4.60;;
5175;SDS011;2607;50.934;6.934;2023-04-24T05:35:10;5.60;;;5.00;;
5175;SDS011;2607;50.934;6.934;2023-04-24T05:37:36;4.60;;;4.30;;
5175;SDS011;2607;50.934;6.934;2023-04-24T05:40:02;5.30;;;4.80;;
5175;SDS011;2607;50.934;6.934;2023-04-24T05:42:30;5.00;;;4.60;;
5175;SDS011;2607;50.934;6.934;2023-04-24T05:44:55;6.97;;;5.43;;
5175;SDS011;2607;50.934;6.934;2023-04-24T05:47:21;5.70;;;5.20;;
5175;SDS011;2607;50.934;6.934;2023-04-24T05:49:47;5.60;;;4.90;;
5175;SDS011;2607;50.934;6.934;2023-04-24T05:52:13;4.77;;;4.40;;
5175;SDS011;2607;50.934;6.934;2023-04-24T05:54:38;5.37;;;4.93;;
5175;SDS011;2607;50.934;6.934;2023-04-24T05:57:04;5.37;;;4.97;;
5175;SDS011;2607;50.934;6.934;2023-04-24T05:59:33;5.77;;;5.20;;
5175;SDS011;2607;50.934;6.934;2023-04-24T06:01:59;6.10;;;5.30;;
5175;SDS011;2607;50.934;6.934;2023-04-24T06:04:25;6.50;;;5.33;;
5175;SDS011;2607;50.934;6.934;2023-04-24T06:06:50;5.90;;;5.40;;
5175;SDS011;2607;50.934;6.934;2023-04-24T06:09:20;5.60;;;5.10;;
5175;SDS011;2607;50.934;6.934;2023-04-24T06:11:47;6.10;;;5.60;;
5175;SDS011;2607;50.934;6.934;2023-04-24T06:14:12;5.87;;;5.20;;
5175;SDS011;2607;50.934;6.934;2023-04-24T06:16:38;5.10;;;4.60;;
5175;SDS011;2607;50.934;6.934;2023-04-24T06:19:05;7.80;;;4.93;;
5175;SDS011;2607;50.934;6.934;2023-04-24T06:21:30;7.67;;;5.57;;
5175;SDS011;2607;50.934;6.934;2023-04-24T06:23:56;6.00;;;5.40;;
5175;SDS011;2607;50.934;6.934;2023-04-24T06:26:23;5.20;;;4.40;;
5175;SDS011;2607;50.934;6.934;2023-04-24T06:28:50;4.40;;;4.00;;
5175;SDS011;2607;50.934;6.934;2023-04-24T06:31:16;3.43;;;3.23;;
5175;SDS011;2607;50.934;6.934;2023-04-24T06:33:42;3.23;;;3.03;;
5175;SDS011;2607;50.934;6.934;2023-04-24T06:36:08;2.97;;;2.87;;
5175;SDS011;2607;50.934;6.934;2023-04-24T06:38:33;2.60;;;2.50;;
5175;SDS011;2607;50.934;6.934;2023-04-24T06:40:59;2.27;;;2.20;;
5175;SDS011;2607;50.934;6.934;2023-04-24T06:43:25;2.63;;;2.40;;
5175;SDS011;2607;50.934;6.934;2023-04-24T06:45:50;2.40;;;2.30;;
5175;SDS011;2607;50.934;6.934;2023-04-24T06:48:16;2.60;;;2.50;;
5175;SDS011;2607;50.934;6.934;2023-04-24T06:50:41;2.60;;;2.40;;
5175;SDS011;2607;50.934;6.934;2023-04-24T06:53:07;2.23;;;2.10;;
5175;SDS011;2607;50.934;6.934;2023-04-24T06:55:35;2.60;;;2.40;;
5175;SDS011;2607;50.934;6.934;2023-04-24T06:58:01;2.00;;;2.00;;
5175;SDS011;2607;50.934;6.934;2023-04-24T07:00:27;1.80;;;1.70;;
5175;SDS011;2607;50.934;6.934;2023-04-24T07:02:52;1.87;;;1.77;;
5175;SDS011;2607;50.934;6.934;2023-04-24T07:05:18;2.27;;;2.20;;
5175;SDS011;2607;50.934;6.934;2023-04-24T07:07:49;2.23;;;1.93;;
5175;SDS011;2607;50.934;6.934;2023-04-24T07:10:15;1.73;;;1.73;;
5175;SDS011;2607;50.934;6.934;2023-04-24T07:12:41;2.23;;;2.00;;
5175;SDS011;2607;50.934;6.934;2023-04-24T07:15:07;1.70;;;1.60;;
5175;SDS011;2607;50.934;6.934;2023-04-24T07:17:33;3.17;;;1.60;;
5175;SDS011;2607;50.934;6.934;2023-04-24T07:19:59;2.00;;;2.00;;
5175;SDS011;2607;50.934;6.934;2023-04-24T07:22:25;2.20;;;2.10;;
5175;SDS011;2607;50.934;6.934;2023-04-24T07:24:51;1.67;;;1.67;;
5175;SDS011;2607;50.934;6.934;2023-04-24T07:27:16;2.67;;;1.73;;
5175;SDS011;2607;50.934;6.934;2023-04-24T07:29:42;2.90;;;2.73;;
5175;SDS011;2607;50.934;6.934;2023-04-24T07:32:08;1.80;;;1.80;;
5175;SDS011;2607;50.934;6.934;2023-04-24T07:34:34;3.00;;;1.97;;
5175;SDS011;2607;50.934;6.934;2023-04-24T07:37:00;2.20;;;2.10;;
5175;SDS011;2607;50.934;6.934;2023-04-24T07:39:25;2.53;;;2.43;;
5175;SDS011;2607;50.934;6.934;2023-04-24T07:41:51;1.90;;;1.90;;
5175;SDS011;2607;50.934;6.934;2023-04-24T07:44:17;1.87;;;1.77;;
5175;SDS011;2607;50.934;6.934;2023-04-24T07:46:42;3.70;;;1.33;;
5175;SDS011;2607;50.934;6.934;2023-04-24T07:49:08;1.40;;;1.30;;
5175;SDS011;2607;50.934;6.934;2023-04-24T07:51:33;1.37;;;1.37;;
5175;SDS011;2607;50.934;6.934;2023-04-24T07:54:03;1.57;;;1.57;;
5175;SDS011;2607;50.934;6.934;2023-04-24T07:56:30;1.30;;;1.30;;
5175;SDS011;2607;50.934;6.934;2023-04-24T07:58:58;1.13;;;1.13;;
5175;SDS011;2607;50.934;6.934;2023-04-24T08:01:23;1.10;;;1.10;;
5175;SDS011;2607;50.934;6.934;2023-04-24T08:03:50;2.30;;;1.20;;
5175;SDS011;2607;50.934;6.934;2023-04-24T08:06:16;1.33;;;1.33;;
5175;SDS011;2607;50.934;6.934;2023-04-24T08:08:41;1.20;;;1.20;;
5175;SDS011;2607;50.934;6.934;2023-04-24T08:11:07;1.30;;;1.30;;
5175;SDS011;2607;50.934;6.934;2023-04-24T08:13:33;1.40;;;1.30;;
5175;SDS011;2607;50.934;6.934;2023-04-24T08:15:58;1.40;;;1.30;;
5175;SDS011;2607;50.934;6.934;2023-04-24T08:18:24;2.70;;;1.40;;
5175;SDS011;2607;50.934;6.934;2023-04-24T08:20:50;1.10;;;1.10;;
5175;SDS011;2607;50.934;6.934;2023-04-24T08:23:15;1.80;;;1.70;;
5175;SDS011;2607;50.934;6.934;2023-04-24T08:25:41;1.47;;;1.37;;
5175;SDS011;2607;50.934;6.934;2023-04-24T08:28:08;1.40;;;1.40;;
5175;SDS011;2607;50.934;6.934;2023-04-24T08:30:34;1.73;;;1.27;;
5175;SDS011;2607;50.934;6.934;2023-04-24T08:33:00;1.60;;;1.60;;
5175;SDS011;2607;50.934;6.934;2023-04-24T08:35:25;1.17;;;1.17;;
5175;SDS011;2607;50.934;6.934;2023-04-24T08:37:52;1.43;;;1.33;;
5175;SDS011;2607;50.934;6.934;2023-04-24T08:40:18;1.10;;;1.10;;
5175;SDS011;2607;50.934;6.934;2023-04-24T08:42:52;2.87;;;1.20;;
5175;SDS011;2607;50.934;6.934;2023-04-24T08:45:20;1.17;;;1.17;;
5175;SDS011;2607;50.934;6.934;2023-04-24T08:47:46;1.50;;;1.23;;
5175;SDS011;2607;50.934;6.934;2023-04-24T08:50:14;1.73;;;1.63;;
5175;SDS011;2607;50.934;6.934;2023-04-24T08:52:41;1.50;;;1.50;;
5175;SDS011;2607;50.934;6.934;2023-04-24T08:55:07;5.30;;;2.47;;
5175;SDS011;2607;50.934;6.934;2023-04-24T08:57:33;2.60;;;2.40;;
5175;SDS011;2607;50.934;6.934;2023-04-24T09:00:01;1.73;;;1.73;;
5175;SDS011;2607;50.934;6.934;2023-04-24T09:02:26;2.00;;;1.90;;
5175;SDS011;2607;50.934;6.934;2023-04-24T09:04:53;2.20;;;1.97;;
5175;SDS011;2607;50.934;6.934;2023-04-24T09:07:21;2.40;;;2.30;;
5175;SDS011;2607;50.934;6.934;2023-04-24T09:09:49;2.77;;;2.60;;
5175;SDS011;2607;50.934;6.934;2023-04-24T09:12:16;3.10;;;2.83;;
5175;SDS011;2607;50.934;6.934;2023-04-24T09:14:42;3.13;;;2.90;;
5175;SDS011;2607;50.934;6.934;2023-04-24T09:17:10;3.07;;;2.87;;
5175;SDS011;2607;50.934;6.934;2023-04-24T09:19:38;3.80;;;3.50;;
5175;SDS011;2607;50.934;6.934;2023-04-24T09:22:05;3.13;;;3.03;;
5175;SDS011;2607;50.934;6.934;2023-04-24T09:24:31;3.87;;;3.57;;
5175;SDS011;2607;50.934;6.934;2023-04-24T09:26:58;3.83;;;3.50;;
5175;SDS011;2607;50.934;6.934;2023-04-24T09:29:26;4.07;;;3.77;;
5175;SDS011;2607;50.934;6.934;2023-04-24T09:31:52;3.97;;;3.73;;
5175;SDS011;2607;50.934;6.934;2023-04-24T09:34:24;11.03;;;4.30;;
5175;SDS011;2607;50.934;6.934;2023-04-24T09:36:51;4.10;;;3.80;;
5175;SDS011;2607;50.934;6.934;2023-04-24T09:39:17;5.40;;;5.10;;
5175;SDS011;2607;50.934;6.934;2023-04-24T09:41:48;5.10;;;4.60;;
5175;SDS011;2607;50.934;6.934;2023-04-24T09:44:24;5.70;;;4.83;;
5175;SDS011;2607;50.934;6.934;2023-04-24T09:46:58;9.83;;;5.47;;
5175;SDS011;2607;50.934;6.934;2023-04-24T09:49:25;9.10;;;5.00;;
5175;SDS011;2607;50.934;6.934;2023-04-24T09:51:52;8.63;;;5.17;;
5175;SDS011;2607;50.934;6.934;2023-04-24T09:54:27;6.03;;;5.33;;
5175;SDS011;2607;50.934;6.934;2023-04-24T09:56:54;7.30;;;6.10;;
5175;SDS011;2607;50.934;6.934;2023-04-24T09:59:21;6.53;;;5.70;;
5175;SDS011;2607;50.934;6.934;2023-04-24T10:01:47;8.77;;;5.40;;
5175;SDS011;2607;50.934;6.934;2023-04-24T10:04:23;6.27;;;5.30;;
5175;SDS011;2607;50.934;6.934;2023-04-24T10:06:51;6.07;;;5.37;;
5175;SDS011;2607;50.934;6.934;2023-04-24T10:09:18;6.27;;;5.10;;
5175;SDS011;2607;50.934;6.934;2023-04-24T10:11:47;5.43;;;4.93;;
5175;SDS011;2607;50.934;6.934;2023-04-24T10:14:14;7.70;;;4.70;;
5175;SDS011;2607;50.934;6.934;2023-04-24T10:16:41;4.83;;;4.43;;
5175;SDS011;2607;50.934;6.934;2023-04-24T10:19:08;5.70;;;4.97;;
5175;SDS011;2607;50.934;6.934;2023-04-24T10:21:34;6.30;;;5.03;;
5175;SDS011;2607;50.934;6.934;2023-04-24T10:24:04;4.80;;;4.40;;
5175;SDS011;2607;50.934;6.934;2023-04-24T10:26:32;7.30;;;4.50;;
5175;SDS011;2607;50.934;6.934;2023-04-24T10:28:58;6.20;;;4.20;;
5175;SDS011;2607;50.934;6.934;2023-04-24T10:31:23;5.50;;;4.90;;
5175;SDS011;2607;50.934;6.934;2023-04-24T10:33:50;4.30;;;3.90;;
5175;SDS011;2607;50.934;6.934;2023-04-24T10:36:17;13.07;;;4.93;;
5175;SDS011;2607;50.934;6.934;2023-04-24T10:38:46;5.03;;;3.87;;
5175;SDS011;2607;50.934;6.934;2023-04-24T10:41:14;3.87;;;3.57;;
5175;SDS011;2607;50.934;6.934;2023-04-24T10:43:44;6.47;;;3.37;;
5175;SDS011;2607;50.934;6.934;2023-04-24T10:46:10;3.67;;;3.13;;
5175;SDS011;2607;50.934;6.934;2023-04-24T10:48:44;7.43;;;3.43;;
5175;SDS011;2607;50.934;6.934;2023-04-24T10:51:21;8.30;;;4.20;;
5175;SDS011;2607;50.934;6.934;2023-04-24T10:53:49;3.90;;;3.60;;
5175;SDS011;2607;50.934;6.934;2023-04-24T10:56:16;9.63;;;4.20;;
5175;SDS011;2607;50.934;6.934;2023-04-24T10:58:43;12.30;;;4.17;;
5175;SDS011;2607;50.934;6.934;2023-04-24T11:01:32;4.50;;;4.10;;
5175;SDS011;2607;50.934;6.934;2023-04-24T11:03:59;5.60;;;3.90;;
5175;SDS011;2607;50.934;6.934;2023-04-24T11:06:30;11.53;;;4.23;;
5175;SDS011;2607;50.934;6.934;2023-04-24T11:11:34;4.50;;;4.00;;
5175;SDS011;2607;50.934;6.934;2023-04-24T11:14:02;10.50;;;4.20;;
5175;SDS011;2607;50.934;6.934;2023-04-24T11:19:18;7.00;;;4.37;;
5175;SDS011;2607;50.934;6.934;2023-04-24T11:22:02;7.47;;;4.63;;
5175;SDS011;2607;50.934;6.934;2023-04-24T11:37:53;4.10;;;3.37;;
5175;SDS011;2607;50.934;6.934;2023-04-24T11:40:20;5.60;;;4.23;;
5175;SDS011;2607;50.934;6.934;2023-04-24T11:42:51;7.37;;;4.13;;
5175;SDS011;2607;50.934;6.934;2023-04-24T11:45:18;10.07;;;4.33;;
5175;SDS011;2607;50.934;6.934;2023-04-24T11:47:51;9.37;;;4.70;;
5175;SDS011;2607;50.934;6.934;2023-04-24T11:50:18;6.00;;;4.80;;
5175;SDS011;2607;50.934;6.934;2023-04-24T11:52:47;5.83;;;4.97;;
5175;SDS011;2607;50.934;6.934;2023-04-24T11:57:45;4.90;;;4.03;;
5175;SDS011;2607;50.934;6.934;2023-04-24T12:00:18;4.47;;;4.07;;
5175;SDS011;2607;50.934;6.934;2023-04-24T12:02:49;6.20;;;3.83;;
5175;SDS011;2607;50.934;6.934;2023-04-24T12:05:19;4.23;;;4.03;;
5175;SDS011;2607;50.934;6.934;2023-04-24T12:07:47;6.20;;;4.27;;
5175;SDS011;2607;50.934;6.934;2023-04-24T12:10:13;5.07;;;4.30;;
5175;SDS011;2607;50.934;6.934;2023-04-24T12:12:39;6.77;;;4.80;;
5175;SDS011;2607;50.934;6.934;2023-04-24T12:15:08;7.43;;;4.80;;
5175;SDS011;2607;50.934;6.934;2023-04-24T12:17:35;7.77;;;5.00;;
5175;SDS011;2607;50.934;6.934;2023-04-24T12:20:04;6.10;;;4.40;;
5175;SDS011;2607;50.934;6.934;2023-04-24T12:25:14;8.60;;;4.93;;
5175;SDS011;2607;50.934;6.934;2023-04-24T12:27:41;6.30;;;4.93;;
5175;SDS011;2607;50.934;6.934;2023-04-24T12:30:09;8.70;;;5.07;;
5175;SDS011;2607;50.934;6.934;2023-04-24T12:32:43;11.27;;;5.07;;
5175;SDS011;2607;50.934;6.934;2023-04-24T12:35:11;7.37;;;5.20;;
5175;SDS011;2607;50.934;6.934;2023-04-24T12:37:37;7.47;;;4.80;;
5175;SDS011;2607;50.934;6.934;2023-04-24T12:42:33;11.63;;;5.27;;
5175;SDS011;2607;50.934;6.934;2023-04-24T12:45:03;10.20;;;5.73;;
5175;SDS011;2607;50.934;6.934;2023-04-24T12:47:31;12.27;;;4.90;;
5175;SDS011;2607;50.934;6.934;2023-04-24T12:49:58;5.00;;;4.30;;
5175;SDS011;2607;50.934;6.934;2023-04-24T12:52:24;7.03;;;4.33;;
5175;SDS011;2607;50.934;6.934;2023-04-24T12:54:54;7.70;;;4.70;;
5175;SDS011;2607;50.934;6.934;2023-04-24T12:57:22;9.07;;;5.73;;
5175;SDS011;2607;50.934;6.934;2023-04-24T12:59:54;10.93;;;5.80;;
5175;SDS011;2607;50.934;6.934;2023-04-24T13:02:22;11.27;;;5.60;;
5175;SDS011;2607;50.934;6.934;2023-04-24T13:04:48;8.73;;;5.20;;
5175;SDS011;2607;50.934;6.934;2023-04-24T13:07:14;9.10;;;5.80;;
5175;SDS011;2607;50.934;6.934;2023-04-24T13:09:40;12.20;;;5.90;;
5175;SDS011;2607;50.934;6.934;2023-04-24T13:12:07;14.50;;;5.23;;
5175;SDS011;2607;50.934;6.934;2023-04-24T13:14:33;7.30;;;5.27;;
5175;SDS011;2607;50.934;6.934;2023-04-24T13:16:58;13.70;;;7.00;;
5175;SDS011;2607;50.934;6.934;2023-04-24T13:19:24;8.10;;;5.07;;
5175;SDS011;2607;50.934;6.934;2023-04-24T13:21:51;10.43;;;4.73;;
5175;SDS011;2607;50.934;6.934;2023-04-24T13:24:17;5.57;;;4.73;;
5175;SDS011;2607;50.934;6.934;2023-04-24T13:26:42;8.80;;;4.90;;
5175;SDS011;2607;50.934;6.934;2023-04-24T13:29:08;7.20;;;4.57;;
5175;SDS011;2607;50.934;6.934;2023-04-24T13:31:34;7.73;;;4.77;;
5175;SDS011;2607;50.934;6.934;2023-04-24T13:34:00;4.90;;;4.50;;
5175;SDS011;2607;50.934;6.934;2023-04-24T13:36:27;6.73;;;4.63;;
5175;SDS011;2607;50.934;6.934;2023-04-24T13:38:52;6.53;;;4.70;;
5175;SDS011;2607;50.934;6.934;2023-04-24T13:41:18;7.73;;;5.53;;
5175;SDS011;2607;50.934;6.934;2023-04-24T13:43:43;6.43;;;4.93;;
5175;SDS011;2607;50.934;6.934;2023-04-24T13:46:09;7.17;;;5.00;;
5175;SDS011;2607;50.934;6.934;2023-04-24T13:48:35;4.33;;;4.13;;
5175;SDS011;2607;50.934;6.934;2023-04-24T13:51:00;12.33;;;5.27;;
5175;SDS011;2607;50.934;6.934;2023-04-24T13:53:26;4.10;;;3.70;;
5175;SDS011;2607;50.934;6.934;2023-04-24T13:55:51;6.60;;;4.37;;
5175;SDS011;2607;50.934;6.934;2023-04-24T13:58:17;4.37;;;3.97;;
5175;SDS011;2607;50.934;6.934;2023-04-24T14:00:42;8.03;;;4.77;;
5175;SDS011;2607;50.934;6.934;2023-04-24T14:03:08;4.37;;;3.90;;
5175;SDS011;2607;50.934;6.934;2023-04-24T14:05:33;6.53;;;4.20;;
5175;SDS011;2607;50.934;6.934;2023-04-24T14:07:59;22.23;;;5.43;;
5175;SDS011;2607;50.934;6.934;2023-04-24T14:10:25;5.80;;;5.20;;
5175;SDS011;2607;50.934;6.934;2023-04-24T14:12:52;4.90;;;3.80;;
5175;SDS011;2607;50.934;6.934;2023-04-24T14:15:18;4.87;;;4.40;;
5175;SDS011;2607;50.934;6.934;2023-04-24T14:17:44;8.70;;;4.97;;
5175;SDS011;2607;50.934;6.934;2023-04-24T14:20:09;8.83;;;3.80;;
5175;SDS011;2607;50.934;6.934;2023-04-24T14:22:35;10.20;;;4.00;;
5175;SDS011;2607;50.934;6.934;2023-04-24T14:25:01;4.60;;;4.27;;
5175;SDS011;2607;50.934;6.934;2023-04-24T14:27:26;8.77;;;4.50;;
5175;SDS011;2607;50.934;6.934;2023-04-24T14:29:52;6.10;;;4.20;;
5175;SDS011;2607;50.934;6.934;2023-04-24T14:32:17;6.23;;;4.23;;
5175;SDS011;2607;50.934;6.934;2023-04-24T14:34:43;6.10;;;3.60;;
5175;SDS011;2607;50.934;6.934;2023-04-24T14:37:09;4.53;;;4.20;;
5175;SDS011;2607;50.934;6.934;2023-04-24T14:39:34;7.77;;;4.30;;
5175;SDS011;2607;50.934;6.934;2023-04-24T14:42:00;6.17;;;3.83;;
5175;SDS011;2607;50.934;6.934;2023-04-24T14:44:26;4.43;;;4.03;;
5175;SDS011;2607;50.934;6.934;2023-04-24T14:46:52;5.33;;;3.77;;
5175;SDS011;2607;50.934;6.934;2023-04-24T14:49:18;5.20;;;4.30;;
5175;SDS011;2607;50.934;6.934;2023-04-24T14:51:43;5.13;;;4.63;;
5175;SDS011;2607;50.934;6.934;2023-04-24T14:54:09;11.10;;;4.43;;
5175;SDS011;2607;50.934;6.934;2023-04-24T14:56:34;13.40;;;7.90;;
5175;SDS011;2607;50.934;6.934;2023-04-24T14:59:00;6.13;;;4.77;;
5175;SDS011;2607;50.934;6.934;2023-04-24T15:01:26;6.90;;;4.80;;
5175;SDS011;2607;50.934;6.934;2023-04-24T15:03:51;4.77;;;4.27;;
5175;SDS011;2607;50.934;6.934;2023-04-24T15:06:17;5.27;;;4.73;;
5175;SDS011;2607;50.934;6.934;2023-04-24T15:08:42;5.90;;;4.53;;
5175;SDS011;2607;50.934;6.934;2023-04-24T15:11:09;6.40;;;4.30;;
5175;SDS011;2607;50.934;6.934;2023-04-24T15:13:35;4.17;;;3.67;;
5175;SDS011;2607;50.934;6.934;2023-04-24T15:16:00;4.80;;;4.27;;
5175;SDS011;2607;50.934;6.934;2023-04-24T15:18:27;7.10;;;5.60;;
5175;SDS011;2607;50.934;6.934;2023-04-24T15:20:53;7.80;;;3.80;;
5175;SDS011;2607;50.934;6.934;2023-04-24T15:23:20;5.37;;;3.30;;
5175;SDS011;2607;50.934;6.934;2023-04-24T15:25:45;4.57;;;4.13;;
5175;SDS011;2607;50.934;6.934;2023-04-24T15:28:11;4.60;;;4.20;;
5175;SDS011;2607;50.934;6.934;2023-04-24T15:30:37;10.67;;;4.63;;
5175;SDS011;2607;50.934;6.934;2023-04-24T15:33:02;7.60;;;4.87;;
5175;SDS011;2607;50.934;6.934;2023-04-24T15:35:28;7.30;;;4.30;;
5175;SDS011;2607;50.934;6.934;2023-04-24T15:37:54;8.50;;;4.57;;